sensor_id;sensor_type;location;lat;lon;timestamp;temperature;humidity
46730;DHT22;32476;50.002;11.854;2023-03-21T00:02:02;5.80;99.90
46730;DHT22;32476;50.002;11.854;2023-03-21T00:04:28;5.80;99.90
46730;DHT22;32476;50.002;11.854;2023-03-21T00:06:55;5.80;99.90
46730;DHT22;32476;50.002;11.854;2023-03-21T00:09:21;5.70;99.90
46730;DHT22;32476;50.002;11.854;2023-03-21T00:11:47;5.80;99.90
46730;DHT22;32476;50.002;11.854;2023-03-21T00:14:15;5.80;99.90
46730;DHT22;32476;50.002;11.854;2023-03-21T00:16:45;5.70;99.90
46730;DHT22;32476;50.002;11.854;2023-03-21T00:19:17;5.70;99.90
46730;DHT22;32476;50.002;11.854;2023-03-21T00:21:45;5.70;99.90
46730;DHT22;32476;50.002;11.854;2023-03-21T00:24:11;5.70;99.90
46730;DHT22;32476;50.002;11.854;2023-03-21T00:26:38;5.60;99.90
46730;DHT22;32476;50.002;11.854;2023-03-21T00:29:04;5.60;99.90
46730;DHT22;32476;50.002;11.854;2023-03-21T00:31:30;5.60;99.90
46730;DHT22;32476;50.002;11.854;2023-03-21T00:33:57;5.60;99.90
46730;DHT22;32476;50.002;11.854;2023-03-21T00:36:23;5.60;99.90
46730;DHT22;32476;50.002;11.854;2023-03-21T00:38:53;5.60;99.90
46730;DHT22;32476;50.002;11.854;2023-03-21T00:41:21;5.50;99.90
46730;DHT22;32476;50.002;11.854;2023-03-21T00:43:46;5.50;99.90
46730;DHT22;32476;50.002;11.854;2023-03-21T00:46:12;5.50;99.90
46730;DHT22;32476;50.002;11.854;2023-03-21T00:48:40;5.50;99.90
46730;DHT22;32476;50.002;11.854;2023-03-21T00:51:11;5.40;99.90
46730;DHT22;32476;50.002;11.854;2023-03-21T00:53:41;5.40;99.90
46730;DHT22;32476;50.002;11.854;2023-03-21T00:56:08;5.30;99.90
46730;DHT22;32476;50.002;11.854;2023-03-21T00:58:33;5.40;99.90
46730;DHT22;32476;50.002;11.854;2023-03-21T01:01:01;5.30;99.90
46730;DHT22;32476;50.002;11.854;2023-03-21T01:03:27;5.40;99.90
46730;DHT22;32476;50.002;11.854;2023-03-21T01:05:53;5.40;99.90
46730;DHT22;32476;50.002;11.854;2023-03-21T01:08:38;5.40;99.90
46730;DHT22;32476;50.002;11.854;2023-03-21T01:11:07;5.40;99.90
46730;DHT22;32476;50.002;11.854;2023-03-21T01:13:35;5.30;99.90
46730;DHT22;32476;50.002;11.854;2023-03-21T01:16:03;5.40;99.90
46730;DHT22;32476;50.002;11.854;2023-03-21T01:18:30;5.40;99.90
46730;DHT22;32476;50.002;11.854;2023-03-21T01:20:59;5.30;99.90
46730;DHT22;32476;50.002;11.854;2023-03-21T01:23:26;5.40;99.90
46730;DHT22;32476;50.002;11.854;2023-03-21T01:25:53;5.30;99.90
46730;DHT22;32476;50.002;11.854;2023-03-21T01:28:23;5.30;99.90
46730;DHT22;32476;50.002;11.854;2023-03-21T01:30:50;5.20;99.90
46730;DHT22;32476;50.002;11.854;2023-03-21T01:33:17;5.20;99.90
46730;DHT22;32476;50.002;11.854;2023-03-21T01:35:45;5.20;99.90
46730;DHT22;32476;50.002;11.854;2023-03-21T01:38:11;5.20;99.90
46730;DHT22;32476;50.002;11.854;2023-03-21T01:40:38;5.20;99.90
46730;DHT22;32476;50.002;11.854;2023-03-21T01:43:27;5.20;99.90
46730;DHT22;32476;50.002;11.854;2023-03-21T01:46:34;5.20;99.90
46730;DHT22;32476;50.002;11.854;2023-03-21T01:49:06;5.10;99.90
46730;DHT22;32476;50.002;11.854;2023-03-21T01:51:35;5.10;99.90
46730;DHT22;32476;50.002;11.854;2023-03-21T01:54:06;5.10;99.90
46730;DHT22;32476;50.002;11.854;2023-03-21T01:56:36;5.10;99.90
46730;DHT22;32476;50.002;11.854;2023-03-21T01:59:10;5.00;99.90
46730;DHT22;32476;50.002;11.854;2023-03-21T02:01:37;5.00;99.90
46730;DHT22;32476;50.002;11.854;2023-03-21T02:04:08;5.00;99.90
46730;DHT22;32476;50.002;11.854;2023-03-21T02:06:45;5.00;99.90
46730;DHT22;32476;50.002;11.854;2023-03-21T02:09:18;4.90;99.90
46730;DHT22;32476;50.002;11.854;2023-03-21T02:11:47;5.00;99.90
46730;DHT22;32476;50.002;11.854;2023-03-21T02:14:17;4.90;99.90
46730;DHT22;32476;50.002;11.854;2023-03-21T02:17:00;4.90;99.90
46730;DHT22;32476;50.002;11.854;2023-03-21T02:19:31;4.80;99.90
46730;DHT22;32476;50.002;11.854;2023-03-21T02:27:25;4.60;99.90
46730;DHT22;32476;50.002;11.854;2023-03-21T02:41:20;4.50;99.90
46730;DHT22;32476;50.002;11.854;2023-03-21T02:46:31;4.50;99.90
46730;DHT22;32476;50.002;11.854;2023-03-21T02:49:06;4.40;99.90
46730;DHT22;32476;50.002;11.854;2023-03-21T02:51:36;4.40;99.90
46730;DHT22;32476;50.002;11.854;2023-03-21T02:54:08;4.40;99.90
46730;DHT22;32476;50.002;11.854;2023-03-21T02:56:38;4.30;99.90
46730;DHT22;32476;50.002;11.854;2023-03-21T02:59:05;4.20;99.90
46730;DHT22;32476;50.002;11.854;2023-03-21T03:01:32;4.30;99.90
46730;DHT22;32476;50.002;11.854;2023-03-21T03:04:00;4.20;99.90
46730;DHT22;32476;50.002;11.854;2023-03-21T03:06:29;4.30;99.90
46730;DHT22;32476;50.002;11.854;2023-03-21T03:09:29;4.20;99.90
46730;DHT22;32476;50.002;11.854;2023-03-21T03:12:10;4.20;99.90
46730;DHT22;32476;50.002;11.854;2023-03-21T03:15:06;4.20;99.90
46730;DHT22;32476;50.002;11.854;2023-03-21T03:23:50;4.00;99.90
46730;DHT22;32476;50.002;11.854;2023-03-21T03:26:38;4.00;99.90
46730;DHT22;32476;50.002;11.854;2023-03-21T03:29:10;4.00;99.90
46730;DHT22;32476;50.002;11.854;2023-03-21T03:31:40;4.00;99.90
46730;DHT22;32476;50.002;11.854;2023-03-21T03:34:13;4.00;99.90
46730;DHT22;32476;50.002;11.854;2023-03-21T03:36:44;4.00;99.90
46730;DHT22;32476;50.002;11.854;2023-03-21T03:39:14;4.00;99.90
46730;DHT22;32476;50.002;11.854;2023-03-21T03:41:46;4.00;99.90
46730;DHT22;32476;50.002;11.854;2023-03-21T03:44:15;3.90;99.90
46730;DHT22;32476;50.002;11.854;2023-03-21T03:49:40;3.90;99.90
46730;DHT22;32476;50.002;11.854;2023-03-21T03:52:26;3.80;99.90
46730;DHT22;32476;50.002;11.854;2023-03-21T03:54:55;3.70;99.90
46730;DHT22;32476;50.002;11.854;2023-03-21T03:57:22;3.80;99.90
46730;DHT22;32476;50.002;11.854;2023-03-21T03:59:50;3.70;99.90
46730;DHT22;32476;50.002;11.854;2023-03-21T04:02:18;3.60;99.90
46730;DHT22;32476;50.002;11.854;2023-03-21T04:04:45;3.50;99.90
46730;DHT22;32476;50.002;11.854;2023-03-21T04:07:12;3.40;99.90
46730;DHT22;32476;50.002;11.854;2023-03-21T04:09:39;3.40;99.90
46730;DHT22;32476;50.002;11.854;2023-03-21T04:12:07;3.40;99.90
46730;DHT22;32476;50.002;11.854;2023-03-21T04:14:32;3.30;99.90
46730;DHT22;32476;50.002;11.854;2023-03-21T04:17:00;3.40;99.90
46730;DHT22;32476;50.002;11.854;2023-03-21T04:19:25;3.50;99.90
46730;DHT22;32476;50.002;11.854;2023-03-21T04:21:51;3.50;99.90
46730;DHT22;32476;50.002;11.854;2023-03-21T04:24:19;3.40;99.90
46730;DHT22;32476;50.002;11.854;2023-03-21T04:26:44;3.40;99.90
46730;DHT22;32476;50.002;11.854;2023-03-21T04:29:10;3.30;99.90
46730;DHT22;32476;50.002;11.854;2023-03-21T04:31:38;3.30;99.90
46730;DHT22;32476;50.002;11.854;2023-03-21T04:34:06;3.30;99.90
46730;DHT22;32476;50.002;11.854;2023-03-21T04:36:35;3.20;99.90
46730;DHT22;32476;50.002;11.854;2023-03-21T04:39:09;3.20;99.90
46730;DHT22;32476;50.002;11.854;2023-03-21T04:41:43;3.20;99.90
46730;DHT22;32476;50.002;11.854;2023-03-21T04:44:12;3.20;99.90
46730;DHT22;32476;50.002;11.854;2023-03-21T04:46:38;3.10;99.90
46730;DHT22;32476;50.002;11.854;2023-03-21T04:49:05;3.00;99.90
46730;DHT22;32476;50.002;11.854;2023-03-21T04:51:36;3.00;99.90
46730;DHT22;32476;50.002;11.854;2023-03-21T04:54:02;2.80;99.90
46730;DHT22;32476;50.002;11.854;2023-03-21T04:56:28;2.70;99.90
46730;DHT22;32476;50.002;11.854;2023-03-21T04:59:04;2.70;99.90
46730;DHT22;32476;50.002;11.854;2023-03-21T05:01:30;2.80;99.90
46730;DHT22;32476;50.002;11.854;2023-03-21T05:04:00;2.90;99.90
46730;DHT22;32476;50.002;11.854;2023-03-21T05:06:26;2.90;99.90
46730;DHT22;32476;50.002;11.854;2023-03-21T05:08:54;3.00;99.90
46730;DHT22;32476;50.002;11.854;2023-03-21T05:11:23;3.00;99.90
46730;DHT22;32476;50.002;11.854;2023-03-21T05:13:49;3.00;99.90
46730;DHT22;32476;50.002;11.854;2023-03-21T05:16:15;2.90;99.90
46730;DHT22;32476;50.002;11.854;2023-03-21T05:18:43;2.90;99.90
46730;DHT22;32476;50.002;11.854;2023-03-21T05:21:08;3.00;99.90
46730;DHT22;32476;50.002;11.854;2023-03-21T05:23:37;3.00;99.90
46730;DHT22;32476;50.002;11.854;2023-03-21T05:26:09;3.00;99.90
46730;DHT22;32476;50.002;11.854;2023-03-21T05:28:35;3.00;99.90
46730;DHT22;32476;50.002;11.854;2023-03-21T05:31:02;3.00;99.90
46730;DHT22;32476;50.002;11.854;2023-03-21T05:33:30;2.90;99.90
46730;DHT22;32476;50.002;11.854;2023-03-21T05:35:57;2.90;99.90
46730;DHT22;32476;50.002;11.854;2023-03-21T05:38:24;2.90;99.90
46730;DHT22;32476;50.002;11.854;2023-03-21T05:40:53;2.90;99.90
46730;DHT22;32476;50.002;11.854;2023-03-21T05:43:19;2.90;99.90
46730;DHT22;32476;50.002;11.854;2023-03-21T05:45:44;2.90;99.90
46730;DHT22;32476;50.002;11.854;2023-03-21T05:48:14;3.00;99.90
46730;DHT22;32476;50.002;11.854;2023-03-21T05:50:40;3.10;99.90
46730;DHT22;32476;50.002;11.854;2023-03-21T05:53:06;3.10;99.90
46730;DHT22;32476;50.002;11.854;2023-03-21T05:55:33;3.10;99.90
46730;DHT22;32476;50.002;11.854;2023-03-21T05:57:59;3.10;99.90
46730;DHT22;32476;50.002;11.854;2023-03-21T06:00:25;3.20;99.90
46730;DHT22;32476;50.002;11.854;2023-03-21T06:02:52;3.30;99.90
46730;DHT22;32476;50.002;11.854;2023-03-21T06:05:18;3.40;99.90
46730;DHT22;32476;50.002;11.854;2023-03-21T06:07:44;3.50;99.90
46730;DHT22;32476;50.002;11.854;2023-03-21T06:10:12;3.60;99.90
46730;DHT22;32476;50.002;11.854;2023-03-21T06:12:37;3.70;99.90
46730;DHT22;32476;50.002;11.854;2023-03-21T06:15:31;3.70;99.90
46730;DHT22;32476;50.002;11.854;2023-03-21T06:18:25;3.80;99.90
46730;DHT22;32476;50.002;11.854;2023-03-21T06:20:50;3.90;99.90
46730;DHT22;32476;50.002;11.854;2023-03-21T06:23:18;3.90;99.90
46730;DHT22;32476;50.002;11.854;2023-03-21T06:25:47;4.00;99.90
46730;DHT22;32476;50.002;11.854;2023-03-21T06:28:13;4.10;99.90
46730;DHT22;32476;50.002;11.854;2023-03-21T06:31:09;4.10;99.90
46730;DHT22;32476;50.002;11.854;2023-03-21T06:33:35;4.20;99.90
46730;DHT22;32476;50.002;11.854;2023-03-21T06:36:02;4.30;99.90
46730;DHT22;32476;50.002;11.854;2023-03-21T06:38:28;4.50;99.90
46730;DHT22;32476;50.002;11.854;2023-03-21T06:40:54;4.50;99.90
46730;DHT22;32476;50.002;11.854;2023-03-21T06:43:21;4.60;99.90
46730;DHT22;32476;50.002;11.854;2023-03-21T06:45:47;4.70;99.90
46730;DHT22;32476;50.002;11.854;2023-03-21T06:48:13;4.80;99.90
46730;DHT22;32476;50.002;11.854;2023-03-21T06:50:40;4.80;99.90
46730;DHT22;32476;50.002;11.854;2023-03-21T06:53:06;4.90;99.90
46730;DHT22;32476;50.002;11.854;2023-03-21T06:55:31;5.00;99.90
46730;DHT22;32476;50.002;11.854;2023-03-21T06:57:59;5.10;99.90
46730;DHT22;32476;50.002;11.854;2023-03-21T07:00:25;5.20;99.90
46730;DHT22;32476;50.002;11.854;2023-03-21T07:02:51;5.20;99.90
46730;DHT22;32476;50.002;11.854;2023-03-21T07:05:19;5.30;99.90
46730;DHT22;32476;50.002;11.854;2023-03-21T07:07:46;5.30;99.90
46730;DHT22;32476;50.002;11.854;2023-03-21T07:10:13;5.30;99.90
46730;DHT22;32476;50.002;11.854;2023-03-21T07:12:40;5.40;99.90
46730;DHT22;32476;50.002;11.854;2023-03-21T07:15:07;5.40;99.90
46730;DHT22;32476;50.002;11.854;2023-03-21T07:17:33;5.50;99.90
46730;DHT22;32476;50.002;11.854;2023-03-21T07:20:00;5.60;99.90
46730;DHT22;32476;50.002;11.854;2023-03-21T07:22:26;5.70;99.90
46730;DHT22;32476;50.002;11.854;2023-03-21T07:24:52;5.70;99.90
46730;DHT22;32476;50.002;11.854;2023-03-21T07:27:19;5.80;99.90
46730;DHT22;32476;50.002;11.854;2023-03-21T07:29:45;5.80;99.90
46730;DHT22;32476;50.002;11.854;2023-03-21T07:32:12;5.90;99.90
46730;DHT22;32476;50.002;11.854;2023-03-21T07:34:39;5.90;99.90
46730;DHT22;32476;50.002;11.854;2023-03-21T07:37:06;6.10;99.90
46730;DHT22;32476;50.002;11.854;2023-03-21T07:39:33;6.20;99.90
46730;DHT22;32476;50.002;11.854;2023-03-21T07:42:01;6.30;99.90
46730;DHT22;32476;50.002;11.854;2023-03-21T07:44:27;6.40;99.90
46730;DHT22;32476;50.002;11.854;2023-03-21T07:46:54;6.40;99.90
46730;DHT22;32476;50.002;11.854;2023-03-21T07:49:21;6.50;99.90
46730;DHT22;32476;50.002;11.854;2023-03-21T07:51:47;6.40;99.90
46730;DHT22;32476;50.002;11.854;2023-03-21T07:54:12;6.50;99.90
46730;DHT22;32476;50.002;11.854;2023-03-21T07:56:40;6.40;99.90
46730;DHT22;32476;50.002;11.854;2023-03-21T07:59:06;6.50;99.90
46730;DHT22;32476;50.002;11.854;2023-03-21T08:01:32;6.50;99.90
46730;DHT22;32476;50.002;11.854;2023-03-21T08:04:00;6.50;99.90
46730;DHT22;32476;50.002;11.854;2023-03-21T08:06:27;6.60;99.90
46730;DHT22;32476;50.002;11.854;2023-03-21T08:08:53;6.80;99.90
46730;DHT22;32476;50.002;11.854;2023-03-21T08:11:20;6.90;99.90
46730;DHT22;32476;50.002;11.854;2023-03-21T08:13:46;7.00;99.90
46730;DHT22;32476;50.002;11.854;2023-03-21T08:16:12;7.00;99.90
46730;DHT22;32476;50.002;11.854;2023-03-21T08:18:39;7.20;99.90
46730;DHT22;32476;50.002;11.854;2023-03-21T08:21:05;7.40;99.90
46730;DHT22;32476;50.002;11.854;2023-03-21T08:23:31;7.50;99.90
46730;DHT22;32476;50.002;11.854;2023-03-21T08:25:58;7.50;99.90
46730;DHT22;32476;50.002;11.854;2023-03-21T08:28:26;7.70;99.90
46730;DHT22;32476;50.002;11.854;2023-03-21T08:30:52;7.70;99.90
46730;DHT22;32476;50.002;11.854;2023-03-21T08:33:19;7.70;99.90
46730;DHT22;32476;50.002;11.854;2023-03-21T08:35:45;7.80;99.90
46730;DHT22;32476;50.002;11.854;2023-03-21T08:38:11;8.10;99.90
46730;DHT22;32476;50.002;11.854;2023-03-21T08:40:38;8.20;99.90
46730;DHT22;32476;50.002;11.854;2023-03-21T08:43:04;8.20;99.90
46730;DHT22;32476;50.002;11.854;2023-03-21T08:45:30;8.40;99.90
46730;DHT22;32476;50.002;11.854;2023-03-21T08:47:57;8.30;99.90
46730;DHT22;32476;50.002;11.854;2023-03-21T08:50:25;8.20;99.90
46730;DHT22;32476;50.002;11.854;2023-03-21T08:52:54;8.30;99.90
46730;DHT22;32476;50.002;11.854;2023-03-21T08:55:21;8.50;99.90
46730;DHT22;32476;50.002;11.854;2023-03-21T08:57:47;8.80;99.90
46730;DHT22;32476;50.002;11.854;2023-03-21T09:00:16;8.80;99.90
46730;DHT22;32476;50.002;11.854;2023-03-21T09:02:45;8.90;99.90
46730;DHT22;32476;50.002;11.854;2023-03-21T09:05:15;9.10;99.90
46730;DHT22;32476;50.002;11.854;2023-03-21T09:07:42;9.20;99.90
46730;DHT22;32476;50.002;11.854;2023-03-21T09:10:14;9.40;99.90
46730;DHT22;32476;50.002;11.854;2023-03-21T09:12:40;9.70;99.90
46730;DHT22;32476;50.002;11.854;2023-03-21T09:15:08;9.70;99.90
46730;DHT22;32476;50.002;11.854;2023-03-21T09:17:36;9.90;99.90
46730;DHT22;32476;50.002;11.854;2023-03-21T09:20:11;9.80;99.90
46730;DHT22;32476;50.002;11.854;2023-03-21T09:22:46;10.10;99.90
46730;DHT22;32476;50.002;11.854;2023-03-21T09:25:13;10.20;99.90
46730;DHT22;32476;50.002;11.854;2023-03-21T09:27:40;10.30;99.90
46730;DHT22;32476;50.002;11.854;2023-03-21T09:30:08;10.40;99.90
46730;DHT22;32476;50.002;11.854;2023-03-21T09:32:35;10.40;99.90
46730;DHT22;32476;50.002;11.854;2023-03-21T09:35:01;10.50;99.90
46730;DHT22;32476;50.002;11.854;2023-03-21T09:37:29;10.30;99.90
46730;DHT22;32476;50.002;11.854;2023-03-21T09:39:57;10.30;99.90
46730;DHT22;32476;50.002;11.854;2023-03-21T09:42:47;10.10;99.90
46730;DHT22;32476;50.002;11.854;2023-03-21T09:45:40;10.00;99.90
46730;DHT22;32476;50.002;11.854;2023-03-21T09:48:16;9.90;99.90
46730;DHT22;32476;50.002;11.854;2023-03-21T09:50:48;10.30;99.90
46730;DHT22;32476;50.002;11.854;2023-03-21T09:53:21;10.00;99.90
46730;DHT22;32476;50.002;11.854;2023-03-21T09:55:50;10.20;99.90
46730;DHT22;32476;50.002;11.854;2023-03-21T09:58:25;10.30;99.90
46730;DHT22;32476;50.002;11.854;2023-03-21T10:01:17;10.40;99.90
46730;DHT22;32476;50.002;11.854;2023-03-21T10:03:52;10.40;99.90
46730;DHT22;32476;50.002;11.854;2023-03-21T10:06:24;10.40;99.90
46730;DHT22;32476;50.002;11.854;2023-03-21T10:09:14;10.80;99.90
46730;DHT22;32476;50.002;11.854;2023-03-21T10:12:06;11.20;99.90
46730;DHT22;32476;50.002;11.854;2023-03-21T10:14:39;11.40;99.90
46730;DHT22;32476;50.002;11.854;2023-03-21T10:17:28;11.50;99.90
46730;DHT22;32476;50.002;11.854;2023-03-21T10:22:37;11.80;99.90
46730;DHT22;32476;50.002;11.854;2023-03-21T10:25:04;11.90;99.90
46730;DHT22;32476;50.002;11.854;2023-03-21T10:27:32;11.90;99.90
46730;DHT22;32476;50.002;11.854;2023-03-21T10:30:00;12.20;99.90
46730;DHT22;32476;50.002;11.854;2023-03-21T10:32:27;12.10;99.90
46730;DHT22;32476;50.002;11.854;2023-03-21T10:34:56;12.30;99.90
46730;DHT22;32476;50.002;11.854;2023-03-21T10:37:24;12.90;99.90
46730;DHT22;32476;50.002;11.854;2023-03-21T10:39:53;13.40;99.90
46730;DHT22;32476;50.002;11.854;2023-03-21T10:42:23;13.10;99.90
46730;DHT22;32476;50.002;11.854;2023-03-21T10:44:53;13.30;99.90
46730;DHT22;32476;50.002;11.854;2023-03-21T10:47:22;13.20;99.90
46730;DHT22;32476;50.002;11.854;2023-03-21T10:49:50;13.30;99.90
46730;DHT22;32476;50.002;11.854;2023-03-21T10:52:21;13.00;99.90
46730;DHT22;32476;50.002;11.854;2023-03-21T10:54:48;12.60;99.90
46730;DHT22;32476;50.002;11.854;2023-03-21T10:57:21;12.90;99.90
46730;DHT22;32476;50.002;11.854;2023-03-21T10:59:55;12.60;99.90
46730;DHT22;32476;50.002;11.854;2023-03-21T11:02:35;12.50;99.90
46730;DHT22;32476;50.002;11.854;2023-03-21T11:05:35;12.70;99.90
46730;DHT22;32476;50.002;11.854;2023-03-21T11:08:09;13.10;99.90
46730;DHT22;32476;50.002;11.854;2023-03-21T11:10:46;13.00;99.90
46730;DHT22;32476;50.002;11.854;2023-03-21T11:13:24;13.20;99.90
46730;DHT22;32476;50.002;11.854;2023-03-21T11:15:54;13.10;99.90
46730;DHT22;32476;50.002;11.854;2023-03-21T11:18:24;13.20;99.90
46730;DHT22;32476;50.002;11.854;2023-03-21T11:20:53;13.60;99.90
46730;DHT22;32476;50.002;11.854;2023-03-21T11:23:20;13.30;99.90
46730;DHT22;32476;50.002;11.854;2023-03-21T11:25:49;13.00;99.90
46730;DHT22;32476;50.002;11.854;2023-03-21T11:28:18;12.90;99.90
46730;DHT22;32476;50.002;11.854;2023-03-21T11:30:54;13.30;99.90
46730;DHT22;32476;50.002;11.854;2023-03-21T11:33:44;13.40;99.90
46730;DHT22;32476;50.002;11.854;2023-03-21T11:38:49;13.60;99.90
46730;DHT22;32476;50.002;11.854;2023-03-21T11:41:24;13.90;99.90
46730;DHT22;32476;50.002;11.854;2023-03-21T11:43:55;13.60;99.30
46730;DHT22;32476;50.002;11.854;2023-03-21T11:46:23;13.70;99.90
46730;DHT22;32476;50.002;11.854;2023-03-21T11:48:50;13.80;99.90
46730;DHT22;32476;50.002;11.854;2023-03-21T11:51:40;13.90;99.90
46730;DHT22;32476;50.002;11.854;2023-03-21T11:54:18;13.80;98.40
46730;DHT22;32476;50.002;11.854;2023-03-21T11:56:50;14.00;99.90
46730;DHT22;32476;50.002;11.854;2023-03-21T11:59:26;14.20;99.90
46730;DHT22;32476;50.002;11.854;2023-03-21T12:10:34;14.90;97.00
46730;DHT22;32476;50.002;11.854;2023-03-21T12:13:20;15.10;96.60
46730;DHT22;32476;50.002;11.854;2023-03-21T12:21:40;13.90;98.50
46730;DHT22;32476;50.002;11.854;2023-03-21T12:24:22;14.40;99.90
46730;DHT22;32476;50.002;11.854;2023-03-21T12:33:11;14.70;97.70
46730;DHT22;32476;50.002;11.854;2023-03-21T12:38:25;14.80;96.60
46730;DHT22;32476;50.002;11.854;2023-03-21T12:41:22;15.20;99.40
46730;DHT22;32476;50.002;11.854;2023-03-21T12:44:03;14.60;94.90
46730;DHT22;32476;50.002;11.854;2023-03-21T12:46:53;14.50;98.00
46730;DHT22;32476;50.002;11.854;2023-03-21T12:52:19;15.30;94.80
46730;DHT22;32476;50.002;11.854;2023-03-21T13:02:56;15.80;95.50
46730;DHT22;32476;50.002;11.854;2023-03-21T13:07:58;15.60;94.20
46730;DHT22;32476;50.002;11.854;2023-03-21T13:10:26;15.70;94.40
46730;DHT22;32476;50.002;11.854;2023-03-21T13:13:08;16.40;94.60
46730;DHT22;32476;50.002;11.854;2023-03-21T13:16:02;16.10;94.90
46730;DHT22;32476;50.002;11.854;2023-03-21T13:18:49;16.00;91.60
46730;DHT22;32476;50.002;11.854;2023-03-21T13:21:47;15.20;93.00
46730;DHT22;32476;50.002;11.854;2023-03-21T13:24:23;15.70;96.40
46730;DHT22;32476;50.002;11.854;2023-03-21T13:27:12;15.40;93.70
46730;DHT22;32476;50.002;11.854;2023-03-21T13:29:42;15.40;91.80
46730;DHT22;32476;50.002;11.854;2023-03-21T13:34:56;15.20;95.80
46730;DHT22;32476;50.002;11.854;2023-03-21T13:37:29;15.00;93.40
46730;DHT22;32476;50.002;11.854;2023-03-21T13:40:06;15.30;94.20
46730;DHT22;32476;50.002;11.854;2023-03-21T13:42:43;15.80;92.30
46730;DHT22;32476;50.002;11.854;2023-03-21T13:45:21;16.00;91.10
46730;DHT22;32476;50.002;11.854;2023-03-21T13:55:42;15.70;92.40
46730;DHT22;32476;50.002;11.854;2023-03-21T14:03:44;15.50;93.70
46730;DHT22;32476;50.002;11.854;2023-03-21T14:06:14;14.90;90.30
46730;DHT22;32476;50.002;11.854;2023-03-21T14:08:44;15.50;91.50
46730;DHT22;32476;50.002;11.854;2023-03-21T14:11:15;15.40;91.60
46730;DHT22;32476;50.002;11.854;2023-03-21T14:13:43;15.10;90.80
46730;DHT22;32476;50.002;11.854;2023-03-21T14:16:12;15.00;91.10
46730;DHT22;32476;50.002;11.854;2023-03-21T14:18:47;15.00;92.80
46730;DHT22;32476;50.002;11.854;2023-03-21T14:21:24;15.20;91.90
46730;DHT22;32476;50.002;11.854;2023-03-21T14:24:00;15.00;92.70
46730;DHT22;32476;50.002;11.854;2023-03-21T14:26:31;15.10;91.70
46730;DHT22;32476;50.002;11.854;2023-03-21T14:29:01;15.00;92.10
46730;DHT22;32476;50.002;11.854;2023-03-21T14:31:28;14.70;92.50
46730;DHT22;32476;50.002;11.854;2023-03-21T14:33:58;14.60;93.90
46730;DHT22;32476;50.002;11.854;2023-03-21T14:36:32;14.30;94.00
46730;DHT22;32476;50.002;11.854;2023-03-21T14:39:17;14.40;94.50
46730;DHT22;32476;50.002;11.854;2023-03-21T14:41:55;14.40;93.40
46730;DHT22;32476;50.002;11.854;2023-03-21T14:44:22;14.20;93.70
46730;DHT22;32476;50.002;11.854;2023-03-21T14:47:02;14.40;94.70
46730;DHT22;32476;50.002;11.854;2023-03-21T14:49:29;13.90;94.00
46730;DHT22;32476;50.002;11.854;2023-03-21T14:52:00;13.70;94.20
46730;DHT22;32476;50.002;11.854;2023-03-21T14:54:27;13.60;96.20
46730;DHT22;32476;50.002;11.854;2023-03-21T14:57:02;13.50;95.40
46730;DHT22;32476;50.002;11.854;2023-03-21T14:59:36;13.40;95.80
46730;DHT22;32476;50.002;11.854;2023-03-21T15:02:34;13.50;96.60
46730;DHT22;32476;50.002;11.854;2023-03-21T15:07:35;13.70;97.60
46730;DHT22;32476;50.002;11.854;2023-03-21T15:10:12;13.50;97.60
46730;DHT22;32476;50.002;11.854;2023-03-21T15:13:35;13.40;97.00
46730;DHT22;32476;50.002;11.854;2023-03-21T15:15:36;13.50;96.50
46730;DHT22;32476;50.002;11.854;2023-03-21T15:18:06;13.70;97.30
46730;DHT22;32476;50.002;11.854;2023-03-21T15:20:35;13.70;96.80
46730;DHT22;32476;50.002;11.854;2023-03-21T15:23:27;13.70;96.70
46730;DHT22;32476;50.002;11.854;2023-03-21T15:25:54;13.60;97.00
46730;DHT22;32476;50.002;11.854;2023-03-21T15:28:24;13.20;97.10
46730;DHT22;32476;50.002;11.854;2023-03-21T15:30:51;13.00;97.50
46730;DHT22;32476;50.002;11.854;2023-03-21T15:33:18;12.90;98.00
46730;DHT22;32476;50.002;11.854;2023-03-21T15:35:51;12.90;98.60
46730;DHT22;32476;50.002;11.854;2023-03-21T15:43:40;13.00;99.90
46730;DHT22;32476;50.002;11.854;2023-03-21T15:46:31;12.80;99.40
46730;DHT22;32476;50.002;11.854;2023-03-21T15:51:43;12.50;99.60
46730;DHT22;32476;50.002;11.854;2023-03-21T15:54:13;12.50;99.90
46730;DHT22;32476;50.002;11.854;2023-03-21T15:56:41;12.40;99.90
46730;DHT22;32476;50.002;11.854;2023-03-21T15:59:15;12.40;99.90
46730;DHT22;32476;50.002;11.854;2023-03-21T16:01:47;12.20;99.90
46730;DHT22;32476;50.002;11.854;2023-03-21T16:04:14;12.30;99.90
46730;DHT22;32476;50.002;11.854;2023-03-21T16:07:01;12.10;99.90
46730;DHT22;32476;50.002;11.854;2023-03-21T16:09:46;11.90;99.90
46730;DHT22;32476;50.002;11.854;2023-03-21T16:12:24;11.90;99.90
46730;DHT22;32476;50.002;11.854;2023-03-21T16:14:52;12.00;99.90
46730;DHT22;32476;50.002;11.854;2023-03-21T16:17:35;11.90;99.90
46730;DHT22;32476;50.002;11.854;2023-03-21T16:20:27;12.00;99.90
46730;DHT22;32476;50.002;11.854;2023-03-21T16:22:53;11.90;99.90
46730;DHT22;32476;50.002;11.854;2023-03-21T16:25:20;12.00;99.90
46730;DHT22;32476;50.002;11.854;2023-03-21T16:27:47;11.90;99.90
46730;DHT22;32476;50.002;11.854;2023-03-21T16:30:15;11.70;99.90
46730;DHT22;32476;50.002;11.854;2023-03-21T16:32:43;11.70;99.90
46730;DHT22;32476;50.002;11.854;2023-03-21T16:35:09;11.70;99.90
46730;DHT22;32476;50.002;11.854;2023-03-21T16:37:36;11.60;99.90
46730;DHT22;32476;50.002;11.854;2023-03-21T16:40:15;11.60;99.90
46730;DHT22;32476;50.002;11.854;2023-03-21T16:42:41;11.50;99.90
46730;DHT22;32476;50.002;11.854;2023-03-21T16:45:10;11.50;99.90
46730;DHT22;32476;50.002;11.854;2023-03-21T16:47:36;11.40;99.90
46730;DHT22;32476;50.002;11.854;2023-03-21T16:50:22;11.30;99.90
46730;DHT22;32476;50.002;11.854;2023-03-21T16:52:53;11.30;99.90
46730;DHT22;32476;50.002;11.854;2023-03-21T16:55:19;11.30;99.90
46730;DHT22;32476;50.002;11.854;2023-03-21T16:57:46;11.30;99.90
46730;DHT22;32476;50.002;11.854;2023-03-21T17:00:18;11.20;99.90
46730;DHT22;32476;50.002;11.854;2023-03-21T17:02:46;11.20;99.90
46730;DHT22;32476;50.002;11.854;2023-03-21T17:05:14;11.20;99.90
46730;DHT22;32476;50.002;11.854;2023-03-21T17:07:40;11.10;99.90
46730;DHT22;32476;50.002;11.854;2023-03-21T17:10:24;11.10;99.90
46730;DHT22;32476;50.002;11.854;2023-03-21T17:12:52;11.00;99.90
46730;DHT22;32476;50.002;11.854;2023-03-21T17:15:19;10.90;99.90
46730;DHT22;32476;50.002;11.854;2023-03-21T17:17:45;10.90;99.90
46730;DHT22;32476;50.002;11.854;2023-03-21T17:20:19;10.80;99.90
46730;DHT22;32476;50.002;11.854;2023-03-21T17:22:46;10.80;99.90
46730;DHT22;32476;50.002;11.854;2023-03-21T17:25:14;10.70;99.90
46730;DHT22;32476;50.002;11.854;2023-03-21T17:27:41;10.60;99.90